sensor_id;sensor_type;location;lat;lon;timestamp;P1;durP1;ratioP1;P2;durP2;ratioP2
51985;SDS011;38002;53.296;6.600;2024-01-07T00:01:46;7.47;;;4.03;;
51985;SDS011;38002;53.296;6.600;2024-01-07T00:06:48;5.65;;;4.22;;
51985;SDS011;38002;53.296;6.600;2024-01-07T00:11:48;5.50;;;3.87;;
51985;SDS011;38002;53.296;6.600;2024-01-07T00:16:49;9.80;;;5.10;;
51985;SDS011;38002;53.296;6.600;2024-01-07T00:21:49;6.57;;;4.27;;
51985;SDS011;38002;53.296;6.600;2024-01-07T00:26:50;8.27;;;5.17;;
51985;SDS011;38002;53.296;6.600;2024-01-07T00:31:50;6.50;;;4.77;;
51985;SDS011;38002;53.296;6.600;2024-01-07T00:36:51;9.57;;;5.53;;
51985;SDS011;38002;53.296;6.600;2024-01-07T00:41:51;7.93;;;4.93;;
51985;SDS011;38002;53.296;6.600;2024-01-07T00:46:52;9.33;;;5.40;;
51985;SDS011;38002;53.296;6.600;2024-01-07T00:51:52;9.27;;;4.90;;
51985;SDS011;38002;53.296;6.600;2024-01-07T00:56:52;10.57;;;4.80;;
51985;SDS011;38002;53.296;6.600;2024-01-07T01:01:53;7.30;;;5.13;;
51985;SDS011;38002;53.296;6.600;2024-01-07T01:06:53;7.77;;;5.10;;
51985;SDS011;38002;53.296;6.600;2024-01-07T01:11:54;9.27;;;4.87;;
51985;SDS011;38002;53.296;6.600;2024-01-07T01:16:54;5.60;;;4.23;;
51985;SDS011;38002;53.296;6.600;2024-01-07T01:21:55;9.17;;;4.37;;
51985;SDS011;38002;53.296;6.600;2024-01-07T01:26:55;6.63;;;4.20;;
51985;SDS011;38002;53.296;6.600;2024-01-07T01:31:56;10.40;;;4.30;;
51985;SDS011;38002;53.296;6.600;2024-01-07T01:36:57;7.22;;;4.35;;
51985;SDS011;38002;53.296;6.600;2024-01-07T01:41:57;12.17;;;5.20;;
51985;SDS011;38002;53.296;6.600;2024-01-07T01:46:58;8.20;;;4.27;;
51985;SDS011;38002;53.296;6.600;2024-01-07T01:52:00;6.13;;;3.42;;
51985;SDS011;38002;53.296;6.600;2024-01-07T01:57:13;9.53;;;3.87;;
51985;SDS011;38002;53.296;6.600;2024-01-07T02:02:37;6.00;;;3.08;;
51985;SDS011;38002;53.296;6.600;2024-01-07T02:07:37;4.80;;;3.23;;
51985;SDS011;38002;53.296;6.600;2024-01-07T02:12:38;6.20;;;3.87;;
51985;SDS011;38002;53.296;6.600;2024-01-07T02:17:38;6.33;;;3.77;;
51985;SDS011;38002;53.296;6.600;2024-01-07T02:22:38;4.77;;;3.37;;
51985;SDS011;38002;53.296;6.600;2024-01-07T02:27:39;3.63;;;3.33;;
51985;SDS011;38002;53.296;6.600;2024-01-07T02:32:39;3.97;;;3.07;;
51985;SDS011;38002;53.296;6.600;2024-01-07T02:37:40;4.17;;;3.13;;
51985;SDS011;38002;53.296;6.600;2024-01-07T02:42:40;4.40;;;3.23;;
51985;SDS011;38002;53.296;6.600;2024-01-07T02:47:41;7.13;;;3.23;;
51985;SDS011;38002;53.296;6.600;2024-01-07T02:52:41;3.70;;;2.70;;
51985;SDS011;38002;53.296;6.600;2024-01-07T02:57:42;3.80;;;2.20;;
51985;SDS011;38002;53.296;6.600;2024-01-07T03:02:42;6.17;;;4.00;;
51985;SDS011;38002;53.296;6.600;2024-01-07T03:07:43;4.43;;;2.60;;
51985;SDS011;38002;53.296;6.600;2024-01-07T03:12:43;3.90;;;3.30;;
51985;SDS011;38002;53.296;6.600;2024-01-07T03:17:44;3.13;;;2.70;;
51985;SDS011;38002;53.296;6.600;2024-01-07T03:22:44;5.27;;;3.13;;
51985;SDS011;38002;53.296;6.600;2024-01-07T03:27:45;3.47;;;2.43;;
51985;SDS011;38002;53.296;6.600;2024-01-07T03:32:45;5.77;;;2.87;;
51985;SDS011;38002;53.296;6.600;2024-01-07T03:37:45;3.93;;;2.47;;
51985;SDS011;38002;53.296;6.600;2024-01-07T03:42:46;3.60;;;2.03;;
51985;SDS011;38002;53.296;6.600;2024-01-07T03:47:46;3.17;;;2.40;;
51985;SDS011;38002;53.296;6.600;2024-01-07T03:52:47;5.70;;;2.40;;
51985;SDS011;38002;53.296;6.600;2024-01-07T03:57:47;2.40;;;2.10;;
51985;SDS011;38002;53.296;6.600;2024-01-07T04:02:48;2.00;;;1.90;;
51985;SDS011;38002;53.296;6.600;2024-01-07T04:07:48;3.23;;;2.53;;
51985;SDS011;38002;53.296;6.600;2024-01-07T04:12:48;2.10;;;1.87;;
51985;SDS011;38002;53.296;6.600;2024-01-07T04:17:49;3.37;;;2.47;;
51985;SDS011;38002;53.296;6.600;2024-01-07T04:22:49;2.67;;;2.03;;
51985;SDS011;38002;53.296;6.600;2024-01-07T04:27:50;3.90;;;1.90;;
51985;SDS011;38002;53.296;6.600;2024-01-07T04:32:50;3.40;;;2.40;;
51985;SDS011;38002;53.296;6.600;2024-01-07T04:37:50;4.60;;;2.00;;
51985;SDS011;38002;53.296;6.600;2024-01-07T04:42:51;2.20;;;2.00;;
51985;SDS011;38002;53.296;6.600;2024-01-07T04:47:51;4.83;;;2.07;;
51985;SDS011;38002;53.296;6.600;2024-01-07T04:52:52;1.63;;;1.27;;
51985;SDS011;38002;53.296;6.600;2024-01-07T04:57:52;2.43;;;1.83;;
51985;SDS011;38002;53.296;6.600;2024-01-07T05:02:52;4.57;;;1.93;;
51985;SDS011;38002;53.296;6.600;2024-01-07T05:07:53;3.87;;;2.03;;
51985;SDS011;38002;53.296;6.600;2024-01-07T05:12:53;1.97;;;1.63;;
51985;SDS011;38002;53.296;6.600;2024-01-07T05:17:54;2.20;;;1.97;;
51985;SDS011;38002;53.296;6.600;2024-01-07T05:22:55;5.77;;;1.40;;
51985;SDS011;38002;53.296;6.600;2024-01-07T05:27:55;1.67;;;1.30;;
51985;SDS011;38002;53.296;6.600;2024-01-07T05:32:55;2.20;;;1.53;;
51985;SDS011;38002;53.296;6.600;2024-01-07T05:37:56;3.83;;;1.30;;
51985;SDS011;38002;53.296;6.600;2024-01-07T05:42:57;1.03;;;1.03;;
51985;SDS011;38002;53.296;6.600;2024-01-07T05:47:57;5.13;;;1.50;;
51985;SDS011;38002;53.296;6.600;2024-01-07T05:52:57;3.13;;;1.57;;
51985;SDS011;38002;53.296;6.600;2024-01-07T05:57:58;1.53;;;1.40;;
51985;SDS011;38002;53.296;6.600;2024-01-07T06:02:58;3.93;;;1.20;;
51985;SDS011;38002;53.296;6.600;2024-01-07T06:07:59;2.00;;;0.90;;
51985;SDS011;38002;53.296;6.600;2024-01-07T06:12:59;9.33;;;1.67;;
51985;SDS011;38002;53.296;6.600;2024-01-07T06:18:00;1.03;;;1.03;;
51985;SDS011;38002;53.296;6.600;2024-01-07T06:23:00;2.00;;;1.40;;
51985;SDS011;38002;53.296;6.600;2024-01-07T06:28:00;1.37;;;1.27;;
51985;SDS011;38002;53.296;6.600;2024-01-07T06:33:01;1.60;;;1.50;;
51985;SDS011;38002;53.296;6.600;2024-01-07T06:38:01;1.20;;;1.17;;
51985;SDS011;38002;53.296;6.600;2024-01-07T06:43:02;1.60;;;1.47;;
51985;SDS011;38002;53.296;6.600;2024-01-07T06:48:02;4.13;;;1.30;;
51985;SDS011;38002;53.296;6.600;2024-01-07T06:53:03;1.60;;;1.30;;
51985;SDS011;38002;53.296;6.600;2024-01-07T06:58:03;2.07;;;1.40;;
51985;SDS011;38002;53.296;6.600;2024-01-07T07:03:04;3.03;;;1.70;;
51985;SDS011;38002;53.296;6.600;2024-01-07T07:08:05;2.07;;;1.53;;
51985;SDS011;38002;53.296;6.600;2024-01-07T07:13:06;2.13;;;1.27;;
51985;SDS011;38002;53.296;6.600;2024-01-07T07:18:06;9.40;;;1.93;;
51985;SDS011;38002;53.296;6.600;2024-01-07T07:23:07;1.30;;;1.30;;
51985;SDS011;38002;53.296;6.600;2024-01-07T07:28:08;1.47;;;1.10;;
51985;SDS011;38002;53.296;6.600;2024-01-07T07:33:08;4.00;;;1.77;;
51985;SDS011;38002;53.296;6.600;2024-01-07T07:38:08;2.53;;;1.63;;
51985;SDS011;38002;53.296;6.600;2024-01-07T07:43:09;1.47;;;1.37;;
51985;SDS011;38002;53.296;6.600;2024-01-07T07:48:09;1.40;;;1.30;;
51985;SDS011;38002;53.296;6.600;2024-01-07T07:53:10;2.33;;;1.83;;
51985;SDS011;38002;53.296;6.600;2024-01-07T07:58:10;2.67;;;1.37;;
51985;SDS011;38002;53.296;6.600;2024-01-07T08:03:11;1.60;;;1.50;;
51985;SDS011;38002;53.296;6.600;2024-01-07T08:08:11;9.63;;;1.80;;
51985;SDS011;38002;53.296;6.600;2024-01-07T08:13:12;3.90;;;1.90;;
51985;SDS011;38002;53.296;6.600;2024-01-07T08:18:12;2.47;;;2.27;;
51985;SDS011;38002;53.296;6.600;2024-01-07T08:23:13;1.77;;;1.60;;
51985;SDS011;38002;53.296;6.600;2024-01-07T08:28:13;1.40;;;1.30;;
51985;SDS011;38002;53.296;6.600;2024-01-07T08:33:14;2.83;;;1.73;;
51985;SDS011;38002;53.296;6.600;2024-01-07T08:38:14;3.50;;;1.40;;
51985;SDS011;38002;53.296;6.600;2024-01-07T08:43:15;2.83;;;1.60;;
51985;SDS011;38002;53.296;6.600;2024-01-07T08:48:15;4.93;;;1.70;;
51985;SDS011;38002;53.296;6.600;2024-01-07T08:53:16;3.83;;;1.40;;
51985;SDS011;38002;53.296;6.600;2024-01-07T08:58:16;3.90;;;1.67;;
51985;SDS011;38002;53.296;6.600;2024-01-07T09:03:17;5.03;;;2.13;;
51985;SDS011;38002;53.296;6.600;2024-01-07T09:08:18;3.73;;;1.77;;
51985;SDS011;38002;53.296;6.600;2024-01-07T09:13:18;2.30;;;1.77;;
51985;SDS011;38002;53.296;6.600;2024-01-07T09:18:19;1.57;;;1.47;;
51985;SDS011;38002;53.296;6.600;2024-01-07T09:23:19;1.80;;;1.70;;
51985;SDS011;38002;53.296;6.600;2024-01-07T09:28:19;1.30;;;1.20;;
51985;SDS011;38002;53.296;6.600;2024-01-07T09:33:21;3.47;;;1.80;;
51985;SDS011;38002;53.296;6.600;2024-01-07T09:38:23;5.40;;;1.60;;
51985;SDS011;38002;53.296;6.600;2024-01-07T09:43:25;2.20;;;1.65;;
51985;SDS011;38002;53.296;6.600;2024-01-07T09:48:26;6.30;;;2.10;;
51985;SDS011;38002;53.296;6.600;2024-01-07T09:53:28;2.23;;;2.03;;
51985;SDS011;38002;53.296;6.600;2024-01-07T09:58:31;3.40;;;1.90;;
51985;SDS011;38002;53.296;6.600;2024-01-07T10:03:31;1.60;;;1.50;;
51985;SDS011;38002;53.296;6.600;2024-01-07T10:08:32;1.97;;;1.80;;
51985;SDS011;38002;53.296;6.600;2024-01-07T10:13:32;2.40;;;2.00;;
51985;SDS011;38002;53.296;6.600;2024-01-07T10:18:33;2.70;;;1.80;;
51985;SDS011;38002;53.296;6.600;2024-01-07T10:23:34;3.30;;;1.40;;
51985;SDS011;38002;53.296;6.600;2024-01-07T10:28:34;3.47;;;2.10;;
51985;SDS011;38002;53.296;6.600;2024-01-07T10:33:37;3.40;;;1.83;;
51985;SDS011;38002;53.296;6.600;2024-01-07T10:38:40;2.20;;;1.70;;
51985;SDS011;38002;53.296;6.600;2024-01-07T10:43:41;7.95;;;2.30;;
51985;SDS011;38002;53.296;6.600;2024-01-07T10:48:55;3.67;;;2.10;;
51985;SDS011;38002;53.296;6.600;2024-01-07T10:54:00;2.80;;;1.90;;
51985;SDS011;38002;53.296;6.600;2024-01-07T10:59:00;3.57;;;2.43;;
51985;SDS011;38002;53.296;6.600;2024-01-07T11:04:13;2.63;;;1.83;;
51985;SDS011;38002;53.296;6.600;2024-01-07T11:09:24;3.67;;;2.45;;
51985;SDS011;38002;53.296;6.600;2024-01-07T11:19:50;5.07;;;2.47;;
51985;SDS011;38002;53.296;6.600;2024-01-07T11:24:54;3.20;;;2.45;;
51985;SDS011;38002;53.296;6.600;2024-01-07T11:30:01;8.70;;;2.78;;
51985;SDS011;38002;53.296;6.600;2024-01-07T11:35:24;6.30;;;2.17;;
51985;SDS011;38002;53.296;6.600;2024-01-07T11:40:58;3.25;;;2.58;;
51985;SDS011;38002;53.296;6.600;2024-01-07T11:46:00;3.90;;;2.70;;
51985;SDS011;38002;53.296;6.600;2024-01-07T11:51:01;2.30;;;2.07;;
51985;SDS011;38002;53.296;6.600;2024-01-07T11:56:01;3.00;;;2.17;;
51985;SDS011;38002;53.296;6.600;2024-01-07T12:01:02;4.30;;;2.17;;
51985;SDS011;38002;53.296;6.600;2024-01-07T12:06:03;4.68;;;2.42;;
51985;SDS011;38002;53.296;6.600;2024-01-07T12:11:05;5.65;;;2.80;;
51985;SDS011;38002;53.296;6.600;2024-01-07T12:16:05;6.85;;;2.22;;
51985;SDS011;38002;53.296;6.600;2024-01-07T12:21:06;3.80;;;2.37;;
51985;SDS011;38002;53.296;6.600;2024-01-07T12:26:07;4.72;;;2.25;;
51985;SDS011;38002;53.296;6.600;2024-01-07T12:31:09;5.15;;;2.33;;
51985;SDS011;38002;53.296;6.600;2024-01-07T12:36:09;3.03;;;2.03;;
51985;SDS011;38002;53.296;6.600;2024-01-07T12:41:10;4.25;;;2.30;;
51985;SDS011;38002;53.296;6.600;2024-01-07T12:46:11;2.50;;;1.93;;
51985;SDS011;38002;53.296;6.600;2024-01-07T12:51:11;7.38;;;2.88;;
51985;SDS011;38002;53.296;6.600;2024-01-07T12:56:11;5.43;;;2.50;;
51985;SDS011;38002;53.296;6.600;2024-01-07T13:01:13;6.18;;;2.33;;
51985;SDS011;38002;53.296;6.600;2024-01-07T13:06:14;4.27;;;2.83;;
51985;SDS011;38002;53.296;6.600;2024-01-07T13:11:14;3.27;;;2.40;;
51985;SDS011;38002;53.296;6.600;2024-01-07T13:16:16;4.38;;;2.10;;
51985;SDS011;38002;53.296;6.600;2024-01-07T13:21:19;2.70;;;2.50;;
51985;SDS011;38002;53.296;6.600;2024-01-07T13:26:20;7.82;;;2.83;;
51985;SDS011;38002;53.296;6.600;2024-01-07T13:31:21;4.77;;;3.43;;
51985;SDS011;38002;53.296;6.600;2024-01-07T13:36:22;11.57;;;4.17;;
51985;SDS011;38002;53.296;6.600;2024-01-07T13:41:22;7.10;;;2.77;;
51985;SDS011;38002;53.296;6.600;2024-01-07T13:46:24;7.60;;;2.97;;
51985;SDS011;38002;53.296;6.600;2024-01-07T13:51:25;5.30;;;2.90;;
51985;SDS011;38002;53.296;6.600;2024-01-07T13:56:26;2.87;;;2.60;;
51985;SDS011;38002;53.296;6.600;2024-01-07T14:01:26;5.55;;;2.60;;
51985;SDS011;38002;53.296;6.600;2024-01-07T14:06:27;5.93;;;2.25;;
51985;SDS011;38002;53.296;6.600;2024-01-07T14:11:27;5.87;;;3.00;;
51985;SDS011;38002;53.296;6.600;2024-01-07T14:16:28;3.83;;;2.47;;
51985;SDS011;38002;53.296;6.600;2024-01-07T14:21:28;3.00;;;2.60;;
51985;SDS011;38002;53.296;6.600;2024-01-07T14:26:30;9.50;;;2.70;;
51985;SDS011;38002;53.296;6.600;2024-01-07T14:31:30;4.07;;;2.77;;
51985;SDS011;38002;53.296;6.600;2024-01-07T14:36:31;4.03;;;2.53;;
51985;SDS011;38002;53.296;6.600;2024-01-07T14:41:31;4.60;;;2.27;;
51985;SDS011;38002;53.296;6.600;2024-01-07T14:46:32;5.80;;;2.73;;
51985;SDS011;38002;53.296;6.600;2024-01-07T14:51:32;2.13;;;1.93;;
51985;SDS011;38002;53.296;6.600;2024-01-07T14:56:33;6.00;;;2.90;;
51985;SDS011;38002;53.296;6.600;2024-01-07T15:01:33;5.90;;;2.63;;
51985;SDS011;38002;53.296;6.600;2024-01-07T15:06:41;3.90;;;2.47;;
51985;SDS011;38002;53.296;6.600;2024-01-07T15:11:43;3.45;;;2.38;;
51985;SDS011;38002;53.296;6.600;2024-01-07T15:16:48;9.25;;;3.03;;
51985;SDS011;38002;53.296;6.600;2024-01-07T15:21:53;6.35;;;3.05;;
51985;SDS011;38002;53.296;6.600;2024-01-07T15:26:54;2.37;;;2.17;;
51985;SDS011;38002;53.296;6.600;2024-01-07T15:31:55;2.40;;;2.20;;
51985;SDS011;38002;53.296;6.600;2024-01-07T15:36:55;5.47;;;3.17;;
51985;SDS011;38002;53.296;6.600;2024-01-07T15:41:56;3.47;;;2.60;;
51985;SDS011;38002;53.296;6.600;2024-01-07T15:46:57;3.70;;;2.67;;
51985;SDS011;38002;53.296;6.600;2024-01-07T15:51:57;2.73;;;2.47;;
51985;SDS011;38002;53.296;6.600;2024-01-07T15:56:58;4.30;;;2.47;;
51985;SDS011;38002;53.296;6.600;2024-01-07T16:01:58;2.90;;;2.60;;
51985;SDS011;38002;53.296;6.600;2024-01-07T16:06:59;4.07;;;2.60;;
51985;SDS011;38002;53.296;6.600;2024-01-07T16:12:00;2.80;;;2.50;;
51985;SDS011;38002;53.296;6.600;2024-01-07T16:17:01;4.55;;;2.50;;
51985;SDS011;38002;53.296;6.600;2024-01-07T16:22:01;2.63;;;2.30;;
51985;SDS011;38002;53.296;6.600;2024-01-07T16:27:07;2.17;;;2.03;;
51985;SDS011;38002;53.296;6.600;2024-01-07T16:32:07;5.53;;;2.40;;
51985;SDS011;38002;53.296;6.600;2024-01-07T16:37:08;2.20;;;2.00;;
51985;SDS011;38002;53.296;6.600;2024-01-07T16:42:08;3.80;;;2.43;;
51985;SDS011;38002;53.296;6.600;2024-01-07T16:47:09;6.27;;;2.30;;
51985;SDS011;38002;53.296;6.600;2024-01-07T16:52:12;2.55;;;1.83;;
51985;SDS011;38002;53.296;6.600;2024-01-07T16:57:13;2.73;;;1.97;;
51985;SDS011;38002;53.296;6.600;2024-01-07T17:02:14;6.37;;;2.20;;
51985;SDS011;38002;53.296;6.600;2024-01-07T17:07:14;3.33;;;2.00;;
51985;SDS011;38002;53.296;6.600;2024-01-07T17:12:15;5.10;;;2.07;;
51985;SDS011;38002;53.296;6.600;2024-01-07T17:17:16;3.57;;;2.17;;
51985;SDS011;38002;53.296;6.600;2024-01-07T17:22:16;3.77;;;2.63;;
51985;SDS011;38002;53.296;6.600;2024-01-07T17:27:17;4.10;;;1.97;;
51985;SDS011;38002;53.296;6.600;2024-01-07T17:32:17;3.00;;;2.20;;
51985;SDS011;38002;53.296;6.600;2024-01-07T17:37:22;2.05;;;1.83;;
51985;SDS011;38002;53.296;6.600;2024-01-07T17:42:23;4.07;;;2.13;;
51985;SDS011;38002;53.296;6.600;2024-01-07T17:47:24;3.45;;;1.73;;
51985;SDS011;38002;53.296;6.600;2024-01-07T17:52:25;3.20;;;2.17;;
51985;SDS011;38002;53.296;6.600;2024-01-07T17:57:26;5.03;;;3.42;;
51985;SDS011;38002;53.296;6.600;2024-01-07T18:02:30;4.18;;;2.50;;
51985;SDS011;38002;53.296;6.600;2024-01-07T18:07:30;3.90;;;2.37;;
51985;SDS011;38002;53.296;6.600;2024-01-07T18:12:31;5.93;;;2.57;;
51985;SDS011;38002;53.296;6.600;2024-01-07T18:17:32;9.60;;;3.53;;
51985;SDS011;38002;53.296;6.600;2024-01-07T18:22:33;4.68;;;3.10;;
51985;SDS011;38002;53.296;6.600;2024-01-07T18:27:34;8.00;;;3.65;;
51985;SDS011;38002;53.296;6.600;2024-01-07T18:32:36;6.63;;;2.90;;
51985;SDS011;38002;53.296;6.600;2024-01-07T18:37:38;7.10;;;3.63;;
51985;SDS011;38002;53.296;6.600;2024-01-07T18:42:39;3.93;;;3.13;;
51985;SDS011;38002;53.296;6.600;2024-01-07T18:47:39;4.70;;;3.30;;
51985;SDS011;38002;53.296;6.600;2024-01-07T18:52:41;6.25;;;3.53;;
51985;SDS011;38002;53.296;6.600;2024-01-07T18:57:41;6.37;;;3.67;;
51985;SDS011;38002;53.296;6.600;2024-01-07T19:02:43;4.00;;;3.40;;
51985;SDS011;38002;53.296;6.600;2024-01-07T19:07:44;5.57;;;3.20;;
51985;SDS011;38002;53.296;6.600;2024-01-07T19:12:44;4.50;;;3.50;;
51985;SDS011;38002;53.296;6.600;2024-01-07T19:17:45;7.80;;;4.07;;
51985;SDS011;38002;53.296;6.600;2024-01-07T19:22:49;3.35;;;2.97;;
51985;SDS011;38002;53.296;6.600;2024-01-07T19:27:49;6.03;;;3.10;;
51985;SDS011;38002;53.296;6.600;2024-01-07T19:32:50;4.77;;;2.60;;
51985;SDS011;38002;53.296;6.600;2024-01-07T19:37:51;5.27;;;2.73;;
51985;SDS011;38002;53.296;6.600;2024-01-07T19:42:52;5.80;;;3.15;;
51985;SDS011;38002;53.296;6.600;2024-01-07T19:47:55;3.15;;;2.67;;
51985;SDS011;38002;53.296;6.600;2024-01-07T19:52:56;4.72;;;2.78;;
51985;SDS011;38002;53.296;6.600;2024-01-07T19:57:56;3.27;;;2.97;;
51985;SDS011;38002;53.296;6.600;2024-01-07T20:02:57;3.30;;;2.60;;
51985;SDS011;38002;53.296;6.600;2024-01-07T20:07:57;3.63;;;2.60;;
51985;SDS011;38002;53.296;6.600;2024-01-07T20:12:58;3.37;;;2.63;;
51985;SDS011;38002;53.296;6.600;2024-01-07T20:17:58;2.53;;;2.03;;
51985;SDS011;38002;53.296;6.600;2024-01-07T20:22:59;5.13;;;2.33;;
51985;SDS011;38002;53.296;6.600;2024-01-07T20:27:59;3.30;;;2.77;;
51985;SDS011;38002;53.296;6.600;2024-01-07T20:33:00;3.00;;;2.70;;
51985;SDS011;38002;53.296;6.600;2024-01-07T20:38:01;4.43;;;3.00;;
51985;SDS011;38002;53.296;6.600;2024-01-07T20:43:01;5.00;;;3.53;;
51985;SDS011;38002;53.296;6.600;2024-01-07T20:48:02;5.87;;;2.93;;
51985;SDS011;38002;53.296;6.600;2024-01-07T20:53:03;4.20;;;2.73;;
51985;SDS011;38002;53.296;6.600;2024-01-07T20:58:05;6.63;;;2.83;;
51985;SDS011;38002;53.296;6.600;2024-01-07T21:03:06;4.50;;;3.10;;
51985;SDS011;38002;53.296;6.600;2024-01-07T21:08:08;2.92;;;2.67;;
51985;SDS011;38002;53.296;6.600;2024-01-07T21:13:08;3.07;;;2.70;;
51985;SDS011;38002;53.296;6.600;2024-01-07T21:18:10;4.67;;;3.43;;
51985;SDS011;38002;53.296;6.600;2024-01-07T21:23:14;3.30;;;2.97;;
51985;SDS011;38002;53.296;6.600;2024-01-07T21:28:15;4.35;;;3.78;;
51985;SDS011;38002;53.296;6.600;2024-01-07T21:33:16;3.90;;;3.10;;
51985;SDS011;38002;53.296;6.600;2024-01-07T21:38:17;5.23;;;3.90;;
51985;SDS011;38002;53.296;6.600;2024-01-07T21:43:18;6.00;;;3.07;;
51985;SDS011;38002;53.296;6.600;2024-01-07T21:48:18;4.80;;;4.00;;
51985;SDS011;38002;53.296;6.600;2024-01-07T21:53:19;4.73;;;3.40;;
51985;SDS011;38002;53.296;6.600;2024-01-07T21:58:19;6.67;;;3.80;;
51985;SDS011;38002;53.296;6.600;2024-01-07T22:03:19;4.30;;;3.00;;
51985;SDS011;38002;53.296;6.600;2024-01-07T22:08:20;6.93;;;3.53;;
51985;SDS011;38002;53.296;6.600;2024-01-07T22:13:20;7.47;;;3.40;;
51985;SDS011;38002;53.296;6.600;2024-01-07T22:18:21;8.10;;;3.90;;
51985;SDS011;38002;53.296;6.600;2024-01-07T22:23:21;4.20;;;3.50;;
51985;SDS011;38002;53.296;6.600;2024-01-07T22:28:22;4.80;;;3.80;;
51985;SDS011;38002;53.296;6.600;2024-01-07T22:33:22;4.03;;;2.93;;
51985;SDS011;38002;53.296;6.600;2024-01-07T22:38:22;4.50;;;3.10;;
51985;SDS011;38002;53.296;6.600;2024-01-07T22:43:23;3.90;;;3.43;;
51985;SDS011;38002;53.296;6.600;2024-01-07T22:48:23;6.23;;;3.97;;
51985;SDS011;38002;53.296;6.600;2024-01-07T22:53:24;4.90;;;3.43;;
51985;SDS011;38002;53.296;6.600;2024-01-07T22:58:25;12.67;;;3.37;;
51985;SDS011;38002;53.296;6.600;2024-01-07T23:03:25;4.03;;;3.10;;
51985;SDS011;38002;53.296;6.600;2024-01-07T23:08:25;4.53;;;3.53;;
51985;SDS011;38002;53.296;6.600;2024-01-07T23:13:26;6.33;;;3.43;;
51985;SDS011;38002;53.296;6.600;2024-01-07T23:18:26;5.93;;;3.47;;
51985;SDS011;38002;53.296;6.600;2024-01-07T23:23:27;4.77;;;3.50;;
51985;SDS011;38002;53.296;6.600;2024-01-07T23:28:27;5.93;;;2.87;;
51985;SDS011;38002;53.296;6.600;2024-01-07T23:33:28;4.13;;;3.20;;
51985;SDS011;38002;53.296;6.600;2024-01-07T23:38:29;5.90;;;3.77;;
51985;SDS011;38002;53.296;6.600;2024-01-07T23:43:29;7.20;;;3.87;;
51985;SDS011;38002;53.296;6.600;2024-01-07T23:48:30;10.00;;;3.47;;
51985;SDS011;38002;53.296;6.600;2024-01-07T23:53:31;7.30;;;3.30;;
51985;SDS011;38002;53.296;6.600;2024-01-07T23:58:31;4.17;;;3.67;;
